Latest Coastal Weather Observations for Gabo Island

IDT60701

Issued at 9:42 pm EDT Thursday 30 March 2017 (issued every 10 minutes, with the page automatically refreshed every 10 minutes)

About coastal observations | Map of coastal stations | Coastal observations for TAS | Marine services | Other Formats
Station Details ID: 084016 Name: GABO ISLAND LIGHTHOUSE Lat: -37.57 Lon: 149.92 Height: 15.2 m
Data from the previous 72 hours. | See also: Recent months at Gabo Island
Date/Time
EDT
Temp
°C
Wind Pressure Rain since
9am
mm
Weather Cloud Vis
km
Sea
Height
m
Swell
Dir  Spd
kts
Gust
kts
hPa Trend Height
m
Period
s
Dir
30/09:30pm 17.0 SW 26 32 1017.5 - 0.0 - - - - - - -
30/09:00pm 17.0 SW 28 31 1017.2 - 0.0 Fine Partly cloudy 20 2 1.0 - -
30/08:30pm 17.1 SW 29 34 1016.9 - 0.0 - - - - - - -
30/08:00pm 17.4 SSW 27 32 1016.2 - 0.0 - - - - - - -
30/07:30pm 17.5 SSW 29 36 1015.7 - 0.0 - - - - - - -
30/07:00pm 17.3 SW 30 34 1015.4 - 0.0 - - - - - - -
30/06:30pm 17.4 SW 26 35 1014.9 - 0.0 - - - - - - -
30/06:00pm 16.8 SW 30 38 1014.1 - 0.0 - - - - - - -
30/05:30pm 17.2 SW 28 34 1013.9 - 0.0 - - - - - - -
30/05:00pm 16.8 SW 28 33 1013.8 - 0.0 - - - - - - -
30/04:30pm 16.7 SW 27 33 1013.8 - 0.0 - - - - - - -
30/04:00pm 16.7 WSW 27 33 1013.6 - 0.0 - - - - - - -
30/03:30pm 16.9 WSW 24 32 1013.5 - 0.0 - - - - - - -
30/03:00pm 16.7 WSW 22 28 1013.5 - 0.0 Distant precip. Mostly cloudy 20 2 1.0 - -
30/02:30pm 16.9 WSW 19 24 1013.9 - 0.0 - - - - - - -
30/02:00pm 17.8 WSW 23 29 1013.7 - 0.0 - - - - - - -
30/01:30pm 16.8 WSW 21 27 1013.8 - 0.0 - - - - - - -
30/01:18pm 16.3 WSW 22 32 1013.9 - 0.0 - - - - - - -
30/01:00pm 16.1 SW 22 27 1013.9 - 0.0 - - - - - - -
30/12:30pm 16.5 WSW 23 30 1013.8 - 0.0 - - - - - - -
30/12:00pm 17.4 WSW 23 28 1013.4 - 0.0 - - - - - - -
30/11:30am 16.1 WSW 17 24 1013.7 - 0.0 - - - - - - -
30/11:03am 14.8 WSW 21 31 1013.8 - 0.0 - - - - - - -
30/11:00am 15.1 WSW 22 31 1013.8 - 0.0 - - - - - - -
30/10:50am 15.2 WSW 22 32 1013.8 - 0.0 - - - - - - -
30/10:30am 15.1 WSW 19 23 1014.0 - 0.0 - - - - - - -
30/10:00am 14.9 WSW 21 26 1014.0 - 0.0 - - - - - - -
30/09:30am 15.6 WSW 21 27 1013.5 - 0.0 - - - - - - -
30/09:00am 15.1 WSW 21 28 1013.0 - 0.0 Distant precip. Mostly cloudy 20 2 1.0 - -
30/08:30am 15.0 WSW 25 31 1012.5 - 0.0 - - - - - - -
30/08:00am 15.0 WSW 23 30 1011.9 - 0.0 - - - - - - -
30/07:30am 15.1 WSW 27 33 1011.5 - 0.0 - - - - - - -
30/07:00am 15.6 WSW 25 31 1010.9 - 0.0 - - - - - - -
30/06:30am 15.6 WSW 27 34 1010.6 - 0.0 - - - - - - -
30/06:00am 15.5 WSW 30 37 1009.5 - 0.0 - - - - - - -
30/05:30am 16.3 WSW 29 35 1008.9 - 0.0 - - - - - - -
30/05:00am 16.2 WSW 29 35 1008.6 - 0.0 - - - - - - -
30/04:30am 17.0 WSW 29 39 1008.0 - 0.0 - - - - - - -
30/04:00am 17.5 WSW 32 40 1006.6 - 0.0 - - - - - - -
30/03:33am 18.1 WSW 29 39 1006.9 - 0.0 - - - - - - -
30/03:30am 18.3 WSW 30 39 1006.9 - 0.0 - - - - - - -
30/03:00am 18.6 WSW 30 37 1006.7 - 0.0 Lightning Mostly cloudy 10 1 1.0 - -
30/02:46am 19.0 WSW 27 37 1007.0 - 0.0 - - - - - - -
30/02:30am 19.2 W 25 29 1007.1 - 0.0 - - - - - - -
30/02:12am 19.3 WSW 15 27 1006.7 - 0.0 - - - - - - -
30/02:00am 19.2 WNW 8 11 1006.0 - 0.0 - - - - - - -
30/01:30am 19.4 W 11 15 1005.4 - 0.0 - - - - - - -
30/01:00am 19.2 W 14 15 1005.3 - 0.0 - - - - - - -
30/12:30am 18.6 W 11 13 1005.5 - 0.0 - - - - - - -
30/12:00am 18.2 W 9 11 1005.6 - 0.0 - - - - - - -
 
Date/Time
EDT
Temp
°C
Wind Pressure Rain since
9am
mm
Weather Cloud Vis
km
Sea
Height
m
Swell
Dir  Spd
kts
Gust
kts
hPa Trend Height
m
Period
s
Dir
29/11:30pm 18.4 W 9 10 1005.9 - 0.0 - - - - - - -
29/11:00pm 18.7 W 11 12 1006.0 - 0.0 - - - - - - -
29/10:30pm 19.3 WSW 14 17 1005.9 - 0.0 - - - - - - -
29/10:00pm 18.8 WSW 11 13 1005.7 - 0.0 - - - - - - -
29/09:30pm 18.3 W 8 9 1005.3 - 0.0 - - - - - - -
29/09:00pm 19.5 WNW 4 5 1004.8 - 0.0 Fine Partly cloudy 30 <0.5 1.0 - -
29/08:30pm 18.1 WNW 1 4 1004.8 - 0.0 - - - - - - -
29/08:00pm 19.2 NNE 7 8 1004.4 - 0.0 - - - - - - -
29/07:30pm 19.3 NNE 8 10 1004.2 - 0.0 - - - - - - -
29/07:00pm 19.5 N 8 11 1004.0 - 0.0 - - - - - - -
29/06:30pm 20.2 N 4 5 1004.0 - 0.0 - - - - - - -
29/06:00pm 20.9 NW 4 5 1004.1 - 0.0 - - - - - - -
29/05:30pm 20.6 NNE 7 9 1004.3 - 0.0 - - - - - - -
29/05:00pm 21.2 NNE 10 13 1004.5 - 0.0 - - - - - - -
29/04:30pm 21.0 NNE 12 14 1004.7 - 0.0 - - - - - - -
29/04:00pm 21.8 NNE 8 10 1005.2 - 0.0 - - - - - - -
29/03:30pm 22.1 NNE 9 11 1005.6 - 0.0 - - - - - - -
29/03:00pm 22.3 NE 13 15 1005.7 - 0.0 Fine Partly cloudy 20 1 1.0 - -
29/02:30pm 22.6 NNE 12 15 1006.2 - 0.0 - - - - - - -
29/02:00pm 22.7 NNE 15 18 1006.5 - 0.0 - - - - - - -
29/01:30pm 22.3 NE 14 16 1007.1 - 0.0 - - - - - - -
29/01:00pm 22.4 NE 14 17 1007.5 - 0.0 - - - - - - -
29/12:30pm 22.8 NE 15 18 1008.2 - 0.0 - - - - - - -
29/12:00pm 22.7 NNE 14 17 1008.3 - 0.0 - - - - - - -
29/11:30am 21.1 NE 14 18 1008.7 - 0.0 - - - - - - -
29/11:00am 24.4 N 12 16 1009.2 - 0.0 - - - - - - -
29/10:30am 24.0 N 10 15 1009.7 - 0.0 - - - - - - -
29/10:00am 22.7 N 13 19 1009.6 - 0.0 - - - - - - -
29/09:30am 22.1 N 12 16 1009.8 - 0.0 - - - - - - -
29/09:00am 20.6 N 9 11 1009.6 - 0.0 Fine Mostly clear 30 <0.5 1.0 - -
29/08:30am 19.5 N 7 12 1009.8 - 0.0 - - - - - - -
29/08:00am 18.4 NNE 9 11 1009.6 - 0.0 - - - - - - -
29/07:30am 17.4 NNE 14 16 1009.4 - 0.0 - - - - - - -
29/07:00am 16.8 NNE 8 11 1009.6 - 0.0 - - - - - - -
29/06:30am 16.8 NE 10 11 1009.6 - 0.0 - - - - - - -
29/06:00am 16.7 NNE 9 10 1009.4 - 0.0 - - - - - - -
29/05:30am 16.3 NNE 7 9 1009.6 - 0.0 - - - - - - -
29/05:00am 14.4 NNE 4 5 1009.8 - 0.0 - - - - - - -
29/04:30am 15.2 N 3 3 1010.1 - 0.0 - - - - - - -
29/04:00am 15.5 NE 3 4 1010.5 - 0.0 - - - - - - -
29/03:30am 15.8 CALM 0 0 1010.7 - 0.0 - - - - - - -
29/03:00am 15.8 CALM 0 0 1011.1 - 0.0 Fine Partly cloudy 30 <0.1 1.0 - -
29/02:30am 15.7 NE 2 4 1011.7 - 0.0 - - - - - - -
29/02:00am 15.8 CALM 0 0 1012.1 - 0.0 - - - - - - -
29/01:30am 15.2 WNW 3 5 1012.3 - 0.0 - - - - - - -
29/01:00am 15.4 W 5 5 1012.8 - 0.0 - - - - - - -
29/12:30am 15.6 CALM 0 1 1013.1 - 0.0 - - - - - - -
29/12:00am 15.8 CALM 0 0 1013.0 - 0.0 - - - - - - -
 
Date/Time
EDT
Temp
°C
Wind Pressure Rain since
9am
mm
Weather Cloud Vis
km
Sea
Height
m
Swell
Dir  Spd
kts
Gust
kts
hPa Trend Height
m
Period
s
Dir
28/11:30pm 14.7 CALM 0 0 1013.2 - 0.0 - - - - - - -
28/11:00pm 15.4 CALM 0 0 1013.4 - 0.0 - - - - - - -
28/10:30pm 15.1 CALM 0 0 1013.5 - 0.0 - - - - - - -
28/10:00pm 14.8 NNE 3 3 1013.4 - 0.0 - - - - - - -
28/09:30pm 14.3 NNE 4 5 1013.4 - 0.0 - - - - - - -
28/09:00pm 14.7 NNE 4 5 1013.4 - 0.0 Fine Clear 40 <0.5 1.0 - -
28/08:30pm 15.3 NE 4 4 1013.3 - 0.0 - - - - - - -
28/08:00pm 15.7 NE 4 5 1013.0 - 0.0 - - - - - - -
28/07:30pm 16.0 ENE 5 6 1012.8 - 0.0 - - - - - - -
28/07:00pm 16.6 ENE 5 6 1013.0 - 0.0 - - - - - - -
28/06:30pm 17.4 ENE 4 4 1012.9 - 0.0 - - - - - - -
28/06:00pm 18.2 ENE 4 5 1012.8 - 0.0 - - - - - - -
28/05:30pm 19.1 ESE 3 4 1012.8 - 0.0 - - - - - - -
28/05:00pm 19.5 SE 4 5 1012.7 - 0.0 - - - - - - -
28/04:30pm 19.7 S 5 6 1012.7 - 0.0 - - - - - - -
28/04:00pm 19.3 S 6 7 1012.9 - 0.0 - - - - - - -
28/03:30pm 20.2 S 7 8 1013.1 - 0.0 - - - - - - -
28/03:00pm 20.4 SSW 9 10 1013.4 - 0.0 Fine Partly cloudy 40 1 1.0 - -
28/02:30pm 19.5 SSW 9 11 1013.8 - 0.0 - - - - - - -
28/02:00pm 19.4 SSW 8 9 1014.0 - 0.0 - - - - - - -
28/01:30pm 19.2 SSW 10 11 1014.4 - 0.0 - - - - - - -
28/01:00pm 19.4 SSW 7 11 1014.5 - 0.0 - - - - - - -
28/12:30pm 20.2 SW 6 8 1014.8 - 0.0 - - - - - - -
28/12:00pm 20.7 W 6 8 1014.9 - 0.0 - - - - - - -
28/11:30am 19.7 W 6 7 1015.0 - 0.0 - - - - - - -
28/11:00am 19.3 W 8 9 1015.1 - 0.0 - - - - - - -
28/10:30am 18.5 WNW 7 9 1015.2 - 0.0 - - - - - - -
28/10:00am 18.3 W 7 9 1014.9 - 0.0 - - - - - - -
28/09:30am 17.2 W 7 9 1014.6 - 0.0 - - - - - - -
28/09:00am 17.1 W 7 9 1014.2 - 1.4 Fine Mostly clear 50 <0.5 1.0 - -
28/08:30am 16.6 WNW 6 8 1014.0 - 1.4 - - - - - - -
28/08:00am 15.8 NW 7 9 1013.9 - 1.4 - - - - - - -
28/07:30am 13.8 N 6 7 1013.7 - 1.4 - - - - - - -
28/07:00am 14.1 NW 7 9 1013.4 - 1.4 - - - - - - -
28/06:30am 14.0 NW 6 7 1013.3 - 1.4 - - - - - - -
28/06:00am 14.6 WNW 6 7 1013.0 - 1.4 - - - - - - -
28/05:30am 14.3 WNW 5 7 1013.0 - 1.4 - - - - - - -
28/05:00am 14.5 NW 5 7 1012.8 - 1.4 - - - - - - -
28/04:30am 15.3 W 12 16 1012.9 - 1.4 - - - - - - -
28/04:00am 15.4 W 13 15 1013.0 - 1.4 - - - - - - -
28/03:30am 15.3 W 12 15 1013.3 - 1.4 - - - - - - -
28/03:00am 15.4 W 14 17 1013.0 - 1.4 Fine Mostly clear 30 2 1.0 - -
28/02:30am 15.4 W 14 18 1013.4 - 1.4 - - - - - - -
28/02:00am 15.6 W 16 19 1013.3 - 1.4 - - - - - - -
28/01:30am 15.4 W 14 17 1013.2 - 1.4 - - - - - - -
28/01:00am 15.5 W 16 19 1013.3 - 1.4 - - - - - - -
28/12:30am 15.6 W 17 19 1013.4 - 1.4 - - - - - - -
28/12:00am 15.8 W 16 20 1012.9 - 1.4 - - - - - - -
 
Date/Time
EDT
Temp
°C
Wind Pressure Rain since
9am
mm
Weather Cloud Vis
km
Sea
Height
m
Swell
Dir  Spd
kts
Gust
kts
hPa Trend Height
m
Period
s
Dir
27/11:30pm 15.6 W 16 19 1012.9 - 1.4 - - - - - - -
27/11:00pm 15.8 W 15 19 1012.8 - 1.4 - - - - - - -
27/10:30pm 15.8 W 11 15 1012.9 - 1.4 - - - - - - -
27/10:00pm 15.7 WSW 13 20 1013.2 - 1.4 - - - - - - -

Other Formats:

Comma delimited format used in spreadsheet applications
http://www.bom.gov.au/fwo/IDT60701/IDT60701.94933.axf

JavaScript Object Notation format (JSON) in row-major order
http://www.bom.gov.au/fwo/IDT60701/IDT60701.94933.json